Terminal Aerodrome Forecast
Issued by NWS

Home | Current Version | Previous Version | Text Only | Print | Product List | Glossary On
Versions: 1 2 3 4 5 6 7 8 9 10 11 12 13 14 15
000
FTUS43 KIND 192300
TAFBMG
TAF
KBMG 192338Z 2000/2024 VRB03KT P6SM OVC030
     FM201600 16003KT P6SM BKN020 OVC060
      AMD LTD TO CLD VIS AND WIND 2002/2014=

USA.gov is the U.S. government's official web portal to all federal, state and local government web resources and services.